This is the latest recevied weather packets stored in our database for station/object WY7ATH-2. If no packets are shown the sender has not sent any weather packets the latest 10 day(s).
| Time | Temp. | Humidity | Pressure | Rain* | Wind** | Luminosity | Snow |
|---|---|---|---|---|---|---|---|
| 1777948373 | 8.33° C | - | - | 7.87 mm | 0 m/s | - | - |
| 1777948197 | 6.11° C | - | - | 1.02 mm | 0 m/s | - | - |
| 1777947600 | 6.67° C | - | - | 1.02 mm | 0 m/s | - | - |
| 1777947003 | 6.67° C | - | - | 1.02 mm | 0 m/s | - | - |
| 1777945209 | 7.78° C | - | - | 7.87 mm | 0 m/s | - | - |
| 1777944612 | 8.33° C | - | - | 7.87 mm | 0 m/s | - | - |
| 1777944208 | 8.89° C | - | - | 7.87 mm | 0 m/s | - | - |
| 1777944195 | 8.89° C | - | - | 7.87 mm | 0 m/s | - | - |
| 1777944036 | 8.89° C | - | - | 7.87 mm | 0 m/s | - | - |
| 1777943418 | 8.89° C | - | - | 7.87 mm | 0 m/s | - | - |
| 1777943355 | 8.89° C | - | - | 7.87 mm | 0 m/s | - | - |
| 1777942822 | 8.89° C | - | - | 7.87 mm | 0 m/s | - | - |
| 1777942223 | 8.89° C | - | - | 8.64 mm | 0 m/s | - | - |
| 1777941788 | 8.33° C | - | - | 9.65 mm | 0 m/s | - | - |
| 1777941781 | 8.33° C | - | - | 9.65 mm | 0 m/s | - | - |
| 1777941623 | 8.89° C | - | - | 8.64 mm | 0 m/s | - | - |
| 1777939233 | 9.44° C | - | - | 8.64 mm | 0 m/s | - | - |
| 1777938636 | 8.33° C | - | - | 9.65 mm | 0 m/s | - | - |
| 1777938039 | 8.33° C | - | - | 9.65 mm | 0 m/s | - | - |
| 1777936845 | 8.89° C | - | - | 9.65 mm | 0 m/s | - | - |
| 1777935050 | 12.22° C | - | - | 12.45 mm | 0 m/s | - | - |
| 1777934498 | 12.78° C | - | - | 12.45 mm | 0 m/s | - | - |
| 1777934454 | 12.78° C | - | - | 12.45 mm | 0 m/s | - | - |
| 1777933934 | 12.22° C | - | - | 12.45 mm | 0 m/s | - | - |
| 1777933857 | 12.22° C | - | - | 12.45 mm | 0 m/s | - | - |
* Rain latest hour (hover to see other rain measurements)
** Current wind speed in m/s (hover to see current wind gust speed)